createdAt,value
2022-07-25T00:00:10.026Z,2.22
2022-07-25T00:02:36.852Z,2.70
2022-07-25T00:05:03.777Z,3.85
2022-07-25T00:07:30.185Z,3.33
2022-07-25T00:09:56.779Z,1.95
2022-07-25T00:12:23.144Z,3.85
2022-07-25T00:14:52.631Z,2.75
2022-07-25T00:17:18.973Z,4.00
2022-07-25T00:19:45.316Z,2.80
2022-07-25T00:22:11.724Z,5.40
2022-07-25T00:24:38.374Z,3.35
2022-07-25T00:27:04.813Z,2.65
2022-07-25T00:29:31.393Z,4.75
2022-07-25T00:31:57.732Z,4.57
2022-07-25T00:34:24.108Z,2.08
2022-07-25T00:36:50.576Z,5.13
2022-07-25T00:39:16.960Z,3.08
2022-07-25T00:41:44.460Z,2.28
2022-07-25T00:44:21.490Z,2.83
2022-07-25T00:46:51.210Z,3.73
2022-07-25T00:49:17.719Z,2.50
2022-07-25T00:51:44.634Z,1.58
2022-07-25T00:54:11.168Z,2.30
2022-07-25T00:56:37.680Z,1.80
2022-07-25T00:59:04.087Z,2.50
2022-07-25T01:01:30.617Z,2.20
2022-07-25T01:03:57.218Z,1.90
2022-07-25T01:06:25.518Z,3.20
2022-07-25T01:08:52.137Z,1.92
2022-07-25T01:11:18.775Z,3.22
2022-07-25T01:13:45.305Z,3.88
2022-07-25T01:16:11.721Z,2.88
2022-07-25T01:18:38.473Z,3.85
2022-07-25T01:21:05.507Z,3.25
2022-07-25T01:23:31.925Z,4.45
2022-07-25T01:25:58.317Z,3.70
2022-07-25T01:28:24.804Z,2.95
2022-07-25T01:30:51.337Z,2.30
2022-07-25T01:33:18.456Z,2.65
2022-07-25T01:35:45.410Z,2.22
2022-07-25T01:38:11.882Z,2.00
2022-07-25T01:40:38.468Z,3.10
2022-07-25T01:43:04.955Z,2.05
2022-07-25T01:45:31.445Z,2.42
2022-07-25T01:47:57.977Z,2.72
2022-07-25T01:50:24.480Z,2.58
2022-07-25T01:52:51.119Z,2.63
2022-07-25T01:55:17.646Z,2.33
2022-07-25T01:57:49.522Z,4.20
2022-07-25T02:00:16.552Z,3.92
2022-07-25T02:02:43.537Z,3.03
2022-07-25T02:05:11.020Z,2.50
2022-07-25T02:07:37.767Z,3.25
2022-07-25T02:10:05.109Z,2.38
2022-07-25T02:12:31.484Z,3.72
2022-07-25T02:14:57.898Z,2.13
2022-07-25T02:17:24.361Z,2.28
2022-07-25T02:19:50.792Z,6.88
2022-07-25T02:22:17.190Z,2.67
2022-07-25T02:24:43.672Z,3.53
2022-07-25T02:27:10.136Z,2.50
2022-07-25T02:29:36.682Z,3.55
2022-07-25T02:32:03.487Z,8.05
2022-07-25T02:34:29.948Z,3.47
2022-07-25T02:36:56.296Z,3.58
2022-07-25T02:39:22.694Z,2.13
2022-07-25T02:41:49.063Z,3.30
2022-07-25T02:44:15.399Z,3.25
2022-07-25T02:46:41.796Z,3.95
2022-07-25T02:49:08.259Z,2.70
2022-07-25T02:51:34.709Z,3.30
2022-07-25T02:54:01.050Z,4.68
2022-07-25T02:56:30.476Z,4.30
2022-07-25T02:58:59.058Z,4.35
2022-07-25T03:01:25.627Z,3.42
2022-07-25T03:03:52.182Z,3.08
2022-07-25T03:06:18.614Z,3.25
2022-07-25T03:08:45.080Z,2.40
2022-07-25T03:11:11.982Z,4.10
2022-07-25T03:13:38.318Z,2.70
2022-07-25T03:16:04.882Z,4.72
2022-07-25T03:18:31.324Z,4.18
2022-07-25T03:20:57.710Z,2.85
2022-07-25T03:23:27.058Z,2.80
2022-07-25T03:25:53.623Z,2.60
2022-07-25T03:28:20.093Z,2.95
2022-07-25T03:30:46.514Z,2.92
2022-07-25T03:33:12.870Z,2.53
2022-07-25T03:35:39.305Z,3.78
2022-07-25T03:38:05.670Z,3.63
2022-07-25T03:40:32.148Z,3.17
2022-07-25T03:42:58.717Z,3.92
2022-07-25T03:45:25.266Z,3.33
2022-07-25T03:47:51.736Z,2.33
2022-07-25T03:50:18.111Z,3.70
2022-07-25T03:52:44.669Z,2.70
2022-07-25T03:55:11.209Z,3.47
2022-07-25T03:57:38.246Z,3.65
2022-07-25T04:00:09.400Z,2.85
2022-07-25T04:02:37.550Z,5.65
2022-07-25T04:05:05.610Z,2.63
2022-07-25T04:07:31.951Z,4.57
2022-07-25T04:09:58.315Z,3.15
2022-07-25T04:12:24.736Z,3.78
2022-07-25T04:14:51.149Z,3.53
2022-07-25T04:17:17.807Z,3.50
2022-07-25T04:19:44.429Z,4.22
2022-07-25T04:22:11.582Z,3.58
2022-07-25T04:24:37.981Z,3.15
2022-07-25T04:27:04.326Z,3.00
2022-07-25T04:29:30.669Z,3.45
2022-07-25T04:31:58.138Z,3.22
2022-07-25T04:34:24.680Z,4.78
2022-07-25T04:36:51.030Z,7.78
2022-07-25T04:39:17.460Z,4.75
2022-07-25T04:41:43.874Z,3.97
2022-07-25T04:44:10.237Z,3.00
2022-07-25T04:46:36.696Z,3.63
2022-07-25T04:49:03.193Z,3.00
2022-07-25T04:51:29.609Z,5.45
2022-07-25T04:53:55.974Z,5.50
2022-07-25T04:56:22.357Z,3.25
2022-07-25T04:58:49.349Z,3.70
2022-07-25T05:01:15.802Z,3.20
2022-07-25T05:03:50.175Z,4.05
2022-07-25T05:06:17.426Z,9.02
2022-07-25T05:08:43.799Z,4.75
2022-07-25T05:11:10.213Z,3.72
2022-07-25T05:13:36.578Z,3.55
2022-07-25T05:16:03.195Z,3.25
2022-07-25T05:18:29.647Z,2.72
2022-07-25T05:20:56.026Z,3.75
2022-07-25T05:23:22.451Z,6.55
2022-07-25T05:25:49.391Z,5.45
2022-07-25T05:28:17.593Z,2.83
2022-07-25T05:30:47.147Z,5.15
2022-07-25T05:33:13.694Z,3.17
2022-07-25T05:35:40.239Z,5.22
2022-07-25T05:38:06.653Z,4.35
2022-07-25T05:40:33.063Z,4.90
2022-07-25T05:43:02.891Z,4.13
2022-07-25T05:45:30.125Z,5.25
2022-07-25T05:47:56.482Z,4.80
2022-07-25T05:50:22.920Z,4.22
2022-07-25T05:52:49.268Z,3.13
2022-07-25T05:55:15.972Z,5.07
2022-07-25T05:57:42.704Z,5.63
2022-07-25T06:00:09.566Z,5.50
2022-07-25T06:02:36.027Z,3.88
2022-07-25T06:05:02.878Z,4.47
2022-07-25T06:07:29.362Z,6.13
2022-07-25T06:09:55.748Z,6.20
2022-07-25T06:12:24.343Z,4.65
2022-07-25T06:14:50.979Z,3.17
2022-07-25T06:17:17.360Z,5.82
2022-07-25T06:19:43.855Z,4.85
2022-07-25T06:22:11.286Z,4.53
2022-07-25T06:24:38.143Z,5.03
2022-07-25T06:27:04.734Z,3.88
2022-07-25T06:29:31.132Z,6.00
2022-07-25T06:31:57.589Z,6.32
2022-07-25T06:34:28.539Z,3.90
2022-07-25T06:36:55.387Z,6.25
2022-07-25T06:39:21.794Z,5.82
2022-07-25T06:41:48.169Z,5.03
2022-07-25T06:44:17.272Z,5.15
2022-07-25T06:46:43.783Z,8.23
2022-07-25T06:49:10.276Z,5.05
2022-07-25T06:51:36.742Z,5.55
2022-07-25T06:54:04.136Z,6.95
2022-07-25T06:56:32.957Z,4.90
2022-07-25T06:58:59.956Z,4.60
2022-07-25T07:04:07.056Z,8.33
2022-07-25T07:06:33.603Z,6.43
2022-07-25T07:08:59.985Z,5.70
2022-07-25T07:11:26.316Z,7.78
2022-07-25T07:13:52.721Z,4.95
2022-07-25T07:16:19.305Z,6.63
2022-07-25T07:18:49.132Z,5.80
2022-07-25T07:21:21.053Z,5.10
2022-07-25T07:23:48.218Z,5.60
2022-07-25T07:26:16.938Z,5.50
2022-07-25T07:28:43.324Z,4.97
2022-07-25T07:31:17.866Z,5.28
2022-07-25T07:33:44.639Z,6.47
2022-07-25T07:36:11.068Z,6.05
2022-07-25T07:38:37.519Z,5.07
2022-07-25T07:41:03.846Z,7.40
2022-07-25T07:43:31.827Z,6.43
2022-07-25T07:46:00.888Z,6.60
2022-07-25T07:48:28.328Z,5.57
2022-07-25T07:50:54.722Z,8.98
2022-07-25T07:53:21.138Z,5.88
2022-07-25T07:55:55.340Z,6.03
2022-07-25T07:58:21.783Z,5.60
2022-07-25T08:00:51.566Z,8.13
2022-07-25T08:03:19.249Z,5.53
2022-07-25T08:05:48.440Z,11.45
2022-07-25T08:08:15.509Z,5.32
2022-07-25T08:10:43.244Z,7.55
2022-07-25T08:13:20.475Z,5.80
2022-07-25T08:15:47.878Z,5.28
2022-07-25T08:18:16.933Z,5.88
2022-07-25T08:20:44.980Z,7.50
2022-07-25T08:23:11.370Z,5.53
2022-07-25T08:25:38.166Z,5.28
2022-07-25T08:28:06.327Z,5.60
2022-07-25T08:30:33.300Z,7.70
2022-07-25T08:33:01.181Z,5.32
2022-07-25T08:35:30.397Z,6.20
2022-07-25T08:37:57.153Z,6.13
2022-07-25T08:40:25.189Z,7.65
2022-07-25T08:42:52.004Z,7.50
2022-07-25T08:45:21.006Z,5.72
2022-07-25T08:47:51.195Z,6.55
2022-07-25T08:50:19.046Z,6.90
2022-07-25T08:52:47.564Z,6.28
2022-07-25T08:55:15.758Z,5.38
2022-07-25T08:57:43.940Z,9.40
2022-07-25T09:00:14.817Z,5.32
2022-07-25T09:02:42.855Z,6.35
2022-07-25T09:05:09.384Z,8.77
2022-07-25T09:07:37.556Z,8.18
2022-07-25T09:10:23.144Z,7.53
2022-07-25T09:12:53.162Z,10.50
2022-07-25T09:15:23.621Z,11.82
2022-07-25T09:17:51.518Z,7.22
2022-07-25T09:20:18.575Z,9.35
2022-07-25T09:22:45.413Z,6.07
2022-07-25T09:25:25.437Z,6.05
2022-07-25T09:27:52.394Z,6.60
2022-07-25T09:30:18.889Z,6.30
2022-07-25T09:32:45.300Z,6.20
2022-07-25T09:35:12.623Z,6.93
2022-07-25T09:37:39.104Z,6.95
2022-07-25T09:40:13.381Z,6.68
2022-07-25T09:42:39.922Z,9.20
2022-07-25T09:45:13.299Z,8.20
2022-07-25T09:47:55.926Z,7.13
2022-07-25T09:50:23.061Z,7.97
2022-07-25T09:52:50.670Z,7.03
2022-07-25T09:55:17.070Z,7.70
2022-07-25T09:57:45.087Z,5.75
2022-07-25T10:00:17.547Z,5.70
2022-07-25T10:02:54.681Z,5.93
2022-07-25T10:05:23.976Z,5.97
2022-07-25T10:07:51.019Z,6.20
2022-07-25T10:10:30.826Z,7.60
2022-07-25T10:13:04.127Z,6.05
2022-07-25T10:15:59.223Z,6.40
2022-07-25T10:18:27.609Z,5.80
2022-07-25T10:20:55.675Z,6.78
2022-07-25T10:23:26.335Z,7.18
2022-07-25T10:26:01.685Z,7.30
2022-07-25T10:28:40.373Z,5.97
2022-07-25T10:31:33.942Z,6.55
2022-07-25T10:34:02.197Z,7.10
2022-07-25T10:36:42.044Z,6.30
2022-07-25T10:39:09.118Z,6.15
2022-07-25T10:41:38.885Z,8.55
2022-07-25T10:44:11.091Z,6.90
2022-07-25T10:46:37.567Z,7.38
2022-07-25T10:49:05.964Z,8.30
2022-07-25T10:51:37.106Z,6.88
2022-07-25T10:54:14.373Z,8.55
2022-07-25T10:56:51.249Z,5.22
2022-07-25T10:59:25.388Z,6.78
2022-07-25T11:01:52.150Z,6.25
2022-07-25T11:04:19.064Z,6.38
2022-07-25T11:06:47.641Z,5.55
2022-07-25T11:09:27.223Z,6.35
2022-07-25T11:11:58.790Z,5.70
2022-07-25T11:14:26.926Z,5.63
2022-07-25T11:16:54.978Z,7.50
2022-07-25T11:19:23.650Z,7.28
2022-07-25T11:21:55.666Z,7.32
2022-07-25T11:24:22.847Z,6.40
2022-07-25T11:26:50.122Z,5.18
2022-07-25T11:29:24.219Z,5.70
2022-07-25T11:31:54.271Z,5.78
2022-07-25T11:34:25.375Z,5.50
2022-07-25T11:36:55.237Z,5.28
2022-07-25T11:39:21.907Z,4.85
2022-07-25T11:41:57.993Z,8.77
2022-07-25T11:44:31.191Z,5.07
2022-07-25T11:46:57.609Z,5.53
2022-07-25T11:49:24.089Z,6.50
2022-07-25T11:51:50.500Z,7.80
2022-07-25T11:54:16.942Z,5.85
2022-07-25T11:56:44.957Z,5.22
2022-07-25T11:59:12.022Z,7.07
2022-07-25T12:01:40.077Z,5.82
2022-07-25T12:04:11.531Z,5.60
2022-07-25T12:06:37.924Z,6.45
2022-07-25T12:09:16.355Z,5.90
2022-07-25T12:11:45.282Z,5.95
2022-07-25T12:14:12.141Z,10.60
2022-07-25T12:16:39.150Z,5.38
2022-07-25T12:19:09.364Z,8.35
2022-07-25T12:21:36.789Z,6.50
2022-07-25T12:24:03.304Z,7.20
2022-07-25T12:26:29.654Z,6.43
2022-07-25T12:28:56.053Z,7.90
2022-07-25T12:31:24.385Z,7.35
2022-07-25T12:33:51.786Z,5.70
2022-07-25T12:36:18.187Z,5.30
2022-07-25T12:38:44.639Z,6.47
2022-07-25T12:41:15.929Z,6.95
2022-07-25T12:43:44.134Z,5.65
2022-07-25T12:46:10.560Z,6.30
2022-07-25T12:48:37.016Z,6.50
2022-07-25T12:51:03.568Z,5.88
2022-07-25T12:53:30.105Z,7.38
2022-07-25T12:55:56.598Z,5.68
2022-07-25T12:58:22.969Z,5.50
2022-07-25T13:00:49.592Z,6.03
2022-07-25T13:03:16.873Z,8.05
2022-07-25T13:05:43.250Z,6.10
2022-07-25T13:08:09.694Z,5.90
2022-07-25T13:10:36.055Z,5.60
2022-07-25T13:13:02.452Z,5.97
2022-07-25T13:15:30.227Z,5.50
2022-07-25T13:17:56.773Z,5.97
2022-07-25T13:20:23.313Z,6.45
2022-07-25T13:22:49.728Z,6.32
2022-07-25T13:25:16.238Z,6.53
2022-07-25T13:27:42.593Z,5.82
2022-07-25T13:30:09.267Z,6.30
2022-07-25T13:32:35.734Z,5.95
2022-07-25T13:35:02.231Z,5.65
2022-07-25T13:37:28.815Z,5.45
2022-07-25T13:39:55.224Z,7.95
2022-07-25T13:42:21.620Z,7.15
2022-07-25T13:44:48.011Z,5.78
2022-07-25T13:47:14.542Z,6.40
2022-07-25T13:49:41.336Z,6.30
2022-07-25T13:52:07.694Z,5.07
2022-07-25T13:54:34.068Z,9.10
2022-07-25T13:57:01.798Z,6.28
2022-07-25T13:59:28.221Z,4.78
2022-07-25T14:01:54.619Z,5.35
2022-07-25T14:04:21.086Z,6.90
2022-07-25T14:06:51.950Z,5.00
2022-07-25T14:09:19.513Z,8.05
2022-07-25T14:11:46.142Z,6.20
2022-07-25T14:14:12.561Z,5.85
2022-07-25T14:16:39.011Z,8.48
2022-07-25T14:19:05.647Z,5.10
2022-07-25T14:21:32.353Z,4.60
2022-07-25T14:23:58.760Z,9.05
2022-07-25T14:26:26.014Z,5.43
2022-07-25T14:28:52.551Z,5.93
2022-07-25T14:31:25.130Z,6.07
2022-07-25T14:33:51.582Z,5.85
2022-07-25T14:36:18.028Z,5.65
2022-07-25T14:38:47.226Z,8.55
2022-07-25T14:41:14.021Z,7.38
2022-07-25T14:43:40.852Z,4.80
2022-07-25T14:46:08.246Z,5.35
2022-07-25T14:48:37.957Z,4.80
2022-07-25T14:51:04.910Z,6.18
2022-07-25T14:53:32.313Z,7.20
2022-07-25T14:55:59.031Z,5.32
2022-07-25T14:58:25.430Z,7.80
2022-07-25T15:00:51.908Z,5.00
2022-07-25T15:03:18.463Z,5.05
2022-07-25T15:05:45.587Z,4.95
2022-07-25T15:08:12.604Z,5.30
2022-07-25T15:10:39.207Z,6.82
2022-07-25T15:13:29.861Z,8.27
2022-07-25T15:15:52.437Z,8.02
2022-07-25T15:18:19.000Z,5.95
2022-07-25T15:20:45.399Z,7.55
2022-07-25T15:23:11.795Z,5.20
2022-07-25T15:28:25.028Z,8.18
2022-07-25T15:30:51.449Z,7.00
2022-07-25T15:33:18.560Z,6.22
2022-07-25T15:35:45.658Z,8.10
2022-07-25T15:38:12.581Z,6.95
2022-07-25T15:40:39.083Z,6.40
2022-07-25T15:43:05.456Z,7.75
2022-07-25T15:45:33.371Z,5.07
2022-07-25T15:48:00.757Z,5.88
2022-07-25T15:50:27.241Z,7.78
2022-07-25T15:52:53.604Z,6.63
2022-07-25T15:55:20.012Z,7.55
2022-07-25T15:57:46.368Z,4.78
2022-07-25T16:00:12.928Z,6.95
2022-07-25T16:02:39.302Z,7.78
2022-07-25T16:05:05.890Z,8.18
2022-07-25T16:07:32.286Z,4.70
2022-07-25T16:09:58.735Z,7.18
2022-07-25T16:12:28.355Z,10.63
2022-07-25T16:14:55.231Z,8.35
2022-07-25T16:17:21.639Z,5.85
2022-07-25T16:19:48.173Z,5.43
2022-07-25T16:22:14.585Z,5.80
2022-07-25T16:24:41.142Z,7.35
2022-07-25T16:27:08.266Z,6.32
2022-07-25T16:29:34.644Z,7.57
2022-07-25T16:32:01.003Z,8.18
2022-07-25T16:34:29.282Z,6.28
2022-07-25T16:36:55.709Z,6.80
2022-07-25T16:39:23.019Z,5.63
2022-07-25T16:41:49.428Z,11.40
2022-07-25T16:44:16.474Z,6.85
2022-07-25T16:46:42.981Z,6.43
2022-07-25T16:49:10.107Z,7.50
2022-07-25T16:51:37.431Z,9.27
2022-07-25T16:54:03.888Z,5.57
2022-07-25T16:56:30.359Z,10.73
2022-07-25T16:58:56.729Z,8.88
2022-07-25T17:01:24.867Z,9.32
2022-07-25T17:03:51.356Z,10.10
2022-07-25T17:06:17.965Z,5.60
2022-07-25T17:08:44.504Z,8.00
2022-07-25T17:11:11.074Z,10.07
2022-07-25T17:13:37.457Z,8.20
2022-07-25T17:16:04.518Z,8.25
2022-07-25T17:18:31.026Z,7.50
2022-07-25T17:20:57.451Z,8.05
2022-07-25T17:23:23.847Z,7.70
2022-07-25T17:25:50.841Z,7.00
2022-07-25T17:28:17.750Z,6.80
2022-07-25T17:30:44.289Z,5.68
2022-07-25T17:33:10.689Z,23.85
2022-07-25T17:35:37.154Z,11.57
2022-07-25T17:38:03.522Z,6.90
2022-07-25T17:40:30.358Z,6.15
2022-07-25T17:42:57.669Z,9.20
2022-07-25T17:45:24.548Z,6.78
2022-07-25T17:47:52.440Z,6.03
2022-07-25T17:50:28.628Z,6.57
2022-07-25T17:52:58.099Z,5.40
2022-07-25T17:55:24.497Z,5.57
2022-07-25T18:00:22.733Z,5.95
2022-07-25T18:02:49.959Z,8.85
2022-07-25T18:05:16.932Z,6.15
2022-07-25T18:07:45.633Z,6.18
2022-07-25T18:10:12.761Z,6.50
2022-07-25T18:12:39.137Z,7.07
2022-07-25T18:15:06.192Z,6.85
2022-07-25T18:17:32.708Z,9.32
2022-07-25T18:19:59.148Z,6.38
2022-07-25T18:22:25.490Z,6.60
2022-07-25T18:24:51.830Z,8.75
2022-07-25T18:27:18.217Z,7.10
2022-07-25T18:29:44.589Z,7.30
2022-07-25T18:32:11.002Z,6.63
2022-07-25T18:34:37.456Z,6.20
2022-07-25T18:37:04.961Z,6.40
2022-07-25T18:39:31.540Z,7.40
2022-07-25T18:41:57.923Z,8.23
2022-07-25T18:44:24.361Z,8.63
2022-07-25T18:46:50.749Z,8.93
2022-07-25T18:49:17.213Z,7.85
2022-07-25T18:51:43.579Z,7.10
2022-07-25T18:54:10.464Z,7.43
2022-07-25T18:56:37.032Z,8.90
2022-07-25T18:59:03.493Z,8.98
2022-07-25T19:01:30.206Z,7.07
2022-07-25T19:03:56.664Z,6.72
2022-07-25T19:06:23.271Z,9.35
2022-07-25T19:08:49.867Z,8.35
2022-07-25T19:11:16.317Z,7.40
2022-07-25T19:13:50.883Z,9.20
2022-07-25T19:16:18.117Z,6.63
2022-07-25T19:18:44.612Z,6.50
2022-07-25T19:21:11.041Z,8.07
2022-07-25T19:23:37.425Z,8.05
2022-07-25T19:26:03.979Z,9.05
2022-07-25T19:28:30.334Z,11.10
2022-07-25T19:30:57.072Z,6.53
2022-07-25T19:33:24.296Z,7.38
2022-07-25T19:35:50.750Z,8.20
2022-07-25T19:38:19.030Z,6.90
2022-07-25T19:40:45.625Z,8.85
2022-07-25T19:43:12.115Z,7.60
2022-07-25T19:45:39.364Z,9.18
2022-07-25T19:48:06.232Z,9.77
2022-07-25T19:50:32.794Z,7.65
2022-07-25T19:52:59.161Z,7.25
2022-07-25T19:55:25.729Z,12.18
2022-07-25T19:57:52.115Z,8.45
2022-07-25T20:00:18.526Z,8.25
2022-07-25T20:02:44.964Z,6.35
2022-07-25T20:05:11.815Z,6.50
2022-07-25T20:07:38.190Z,5.82
2022-07-25T20:10:04.930Z,5.68
2022-07-25T20:12:32.832Z,4.40
2022-07-25T20:14:59.201Z,8.30
2022-07-25T20:17:26.633Z,6.75
2022-07-25T20:19:53.322Z,7.43
2022-07-25T20:22:22.244Z,8.02
2022-07-25T20:24:51.869Z,7.97
2022-07-25T20:27:18.296Z,8.77
2022-07-25T20:29:47.739Z,7.00
2022-07-25T20:32:17.164Z,7.90
2022-07-25T20:34:46.129Z,7.07
2022-07-25T20:37:17.562Z,8.25
2022-07-25T20:39:48.217Z,9.93
2022-07-25T20:42:15.451Z,9.20
2022-07-25T20:44:45.369Z,10.52
2022-07-25T20:47:17.601Z,7.90
2022-07-25T20:49:45.366Z,8.07
2022-07-25T20:52:14.788Z,7.40
2022-07-25T20:54:43.287Z,7.47
2022-07-25T20:57:12.656Z,10.07
2022-07-25T20:59:39.015Z,9.48
2022-07-25T21:02:05.622Z,8.10
2022-07-25T21:04:33.946Z,8.80
2022-07-25T21:07:00.399Z,8.02
2022-07-25T21:09:32.509Z,6.88
2022-07-25T21:11:59.463Z,7.13
2022-07-25T21:14:26.879Z,7.65
2022-07-25T21:16:54.122Z,9.48
2022-07-25T21:19:22.856Z,7.25
2022-07-25T21:21:49.496Z,7.38
2022-07-25T21:24:16.148Z,6.93
2022-07-25T21:26:42.707Z,9.15
2022-07-25T21:29:09.615Z,6.72
2022-07-25T21:31:36.289Z,6.28
2022-07-25T21:34:02.789Z,11.65
2022-07-25T21:36:29.513Z,7.45
2022-07-25T21:38:55.893Z,6.75
2022-07-25T21:41:22.780Z,7.18
2022-07-25T21:43:49.481Z,7.70
2022-07-25T21:46:15.944Z,8.50
2022-07-25T21:49:01.320Z,8.13
2022-07-25T21:51:29.158Z,10.85
2022-07-25T21:54:07.096Z,8.32
2022-07-25T21:56:33.536Z,9.05
2022-07-25T21:58:59.947Z,9.80
2022-07-25T22:01:26.424Z,10.90
2022-07-25T22:03:53.089Z,8.77
2022-07-25T22:06:19.624Z,9.85
2022-07-25T22:08:45.950Z,10.80
2022-07-25T22:11:20.755Z,9.70
2022-07-25T22:13:59.296Z,9.52
2022-07-25T22:16:25.716Z,15.32
2022-07-25T22:18:52.198Z,10.38
2022-07-25T22:21:18.508Z,11.35
2022-07-25T22:23:44.895Z,10.98
2022-07-25T22:26:11.444Z,10.73
2022-07-25T22:28:37.794Z,12.10
2022-07-25T22:31:04.201Z,11.23
2022-07-25T22:33:31.143Z,11.52
2022-07-25T22:35:57.634Z,11.70
2022-07-25T22:38:23.955Z,11.90
2022-07-25T22:40:50.474Z,14.18
2022-07-25T22:43:16.847Z,12.20
2022-07-25T22:45:43.309Z,12.35
2022-07-25T22:48:09.712Z,11.65
2022-07-25T22:50:36.050Z,12.93
2022-07-25T22:53:02.424Z,14.25
2022-07-25T22:55:28.892Z,14.68
2022-07-25T22:57:55.217Z,12.45
2022-07-25T23:00:21.722Z,13.20
2022-07-25T23:02:48.123Z,14.02
2022-07-25T23:05:14.550Z,13.80
2022-07-25T23:07:40.942Z,14.93
2022-07-25T23:10:07.588Z,15.30
2022-07-25T23:12:33.933Z,12.63
2022-07-25T23:15:00.468Z,12.18
2022-07-25T23:17:26.863Z,13.18
2022-07-25T23:19:54.239Z,13.60
2022-07-25T23:22:21.390Z,12.00
2022-07-25T23:24:47.764Z,13.52
2022-07-25T23:27:14.411Z,12.57
2022-07-25T23:29:40.880Z,14.98
2022-07-25T23:32:07.500Z,13.30
2022-07-25T23:34:34.109Z,14.07
2022-07-25T23:37:01.047Z,14.20
2022-07-25T23:39:27.750Z,13.48
2022-07-25T23:41:54.386Z,13.23
2022-07-25T23:44:20.740Z,12.50
2022-07-25T23:46:49.635Z,11.93
2022-07-25T23:49:16.082Z,14.85
2022-07-25T23:51:42.482Z,12.88
2022-07-25T23:54:08.845Z,14.60
2022-07-25T23:56:35.192Z,13.32
2022-07-25T23:59:01.793Z,14.23
